createdAt,value
2022-11-28T00:01:41.482Z,6.05
2022-11-28T00:04:10.569Z,6.57
2022-11-28T00:06:41.274Z,6.58
2022-11-28T00:09:09.778Z,6.44
2022-11-28T00:11:40.732Z,6.58
2022-11-28T00:14:09.440Z,6.75
2022-11-28T00:16:38.085Z,6.57
2022-11-28T00:19:06.242Z,6.95
2022-11-28T00:21:34.871Z,7.18
2022-11-28T00:24:03.481Z,6.66
2022-11-28T00:26:34.860Z,6.43
2022-11-28T00:29:04.440Z,6.15
2022-11-28T00:31:36.017Z,6.66
2022-11-28T00:34:04.465Z,6.69
2022-11-28T00:36:32.400Z,6.49
2022-11-28T00:39:00.478Z,6.53
2022-11-28T00:41:31.312Z,6.49
2022-11-28T00:43:59.293Z,6.66
2022-11-28T00:46:27.942Z,7.14
2022-11-28T00:48:58.219Z,6.79
2022-11-28T00:51:29.212Z,6.59
2022-11-28T00:53:59.080Z,6.75
2022-11-28T00:56:33.703Z,6.61
2022-11-28T00:59:02.242Z,6.39
2022-11-28T01:01:32.821Z,6.57
2022-11-28T01:04:02.881Z,6.44
2022-11-28T01:06:34.333Z,6.41
2022-11-28T01:09:06.077Z,6.69
2022-11-28T01:11:34.567Z,6.44
2022-11-28T01:14:02.799Z,6.69
2022-11-28T01:16:31.211Z,6.84
2022-11-28T01:18:59.601Z,6.61
2022-11-28T01:21:28.091Z,6.58
2022-11-28T01:23:56.254Z,6.70
2022-11-28T01:26:27.831Z,6.77
2022-11-28T01:28:56.340Z,6.68
2022-11-28T01:31:26.705Z,6.52
2022-11-28T01:33:54.911Z,6.43
2022-11-28T01:36:23.420Z,7.10
2022-11-28T01:38:52.249Z,7.10
2022-11-28T01:41:23.241Z,6.82
2022-11-28T01:44:00.239Z,7.13
2022-11-28T01:46:29.667Z,7.03
2022-11-28T01:49:02.111Z,6.89
2022-11-28T01:51:30.631Z,6.92
2022-11-28T01:53:59.430Z,6.70
2022-11-28T01:56:29.589Z,7.13
2022-11-28T01:59:03.309Z,7.08
2022-11-28T02:01:31.940Z,6.71
2022-11-28T02:04:00.589Z,7.09
2022-11-28T02:06:28.740Z,6.98
2022-11-28T02:08:56.804Z,6.46
2022-11-28T02:11:54.311Z,6.71
2022-11-28T02:14:59.561Z,6.28
2022-11-28T02:17:38.343Z,5.99
2022-11-28T02:20:31.911Z,6.26
2022-11-28T02:23:09.319Z,6.33
2022-11-28T02:25:55.870Z,6.55
2022-11-28T02:28:32.991Z,6.35
2022-11-28T02:31:25.999Z,5.81
2022-11-28T02:33:57.962Z,5.47
2022-11-28T02:37:04.383Z,5.41
2022-11-28T02:39:39.270Z,5.03
2022-11-28T02:42:29.167Z,5.29
2022-11-28T02:45:36.039Z,4.93
2022-11-28T02:48:09.152Z,5.46
2022-11-28T02:51:00.649Z,5.01
2022-11-28T02:53:30.961Z,4.69
2022-11-28T02:55:59.950Z,5.11
2022-11-28T02:58:28.211Z,5.24
2022-11-28T03:00:56.690Z,5.31
2022-11-28T03:03:29.129Z,5.03
2022-11-28T03:06:30.840Z,5.30
2022-11-28T03:09:17.768Z,5.22
2022-11-28T03:11:58.193Z,4.98
2022-11-28T03:14:35.270Z,5.19
2022-11-28T03:17:20.281Z,4.42
2022-11-28T03:20:04.951Z,4.24
2022-11-28T03:22:49.190Z,4.57
2022-11-28T03:25:41.842Z,4.59
2022-11-28T03:28:19.323Z,4.84
2022-11-28T03:31:25.268Z,5.33
2022-11-28T03:33:58.492Z,5.37
2022-11-28T03:36:35.869Z,5.68
2022-11-28T03:39:12.812Z,5.70
2022-11-28T03:41:48.440Z,5.41
2022-11-28T03:44:23.829Z,5.02
2022-11-28T03:46:52.237Z,5.50
2022-11-28T03:49:39.919Z,5.47
2022-11-28T03:52:27.910Z,5.54
2022-11-28T03:55:12.370Z,5.81
2022-11-28T03:57:45.662Z,5.99
2022-11-28T04:00:14.731Z,6.14
2022-11-28T04:02:57.609Z,5.77
2022-11-28T04:05:40.910Z,5.66
2022-11-28T04:08:29.666Z,5.75
2022-11-28T04:11:21.349Z,5.88
2022-11-28T04:13:57.542Z,5.78
2022-11-28T04:16:35.627Z,6.04
2022-11-28T04:19:16.521Z,5.96
2022-11-28T04:21:50.303Z,6.03
2022-11-28T04:24:22.740Z,5.86
2022-11-28T04:27:03.310Z,6.09
2022-11-28T04:29:35.089Z,5.67
2022-11-28T04:32:04.639Z,5.60
2022-11-28T04:34:35.425Z,5.57
2022-11-28T04:37:09.635Z,5.45
2022-11-28T04:39:39.070Z,5.86
2022-11-28T04:42:14.039Z,5.33
2022-11-28T04:44:55.240Z,6.05
2022-11-28T04:47:24.222Z,5.34
2022-11-28T04:49:53.700Z,5.39
2022-11-28T04:52:29.730Z,5.21
2022-11-28T04:55:25.924Z,5.70
2022-11-28T04:58:00.652Z,5.95
2022-11-28T05:00:29.036Z,5.38
2022-11-28T05:02:57.294Z,5.54
2022-11-28T05:05:26.591Z,5.73
2022-11-28T05:07:54.915Z,5.71
2022-11-28T05:10:22.851Z,6.06
2022-11-28T05:12:50.823Z,5.76
2022-11-28T05:15:19.397Z,5.92
2022-11-28T05:17:47.290Z,5.62
2022-11-28T05:20:15.455Z,5.79
2022-11-28T05:22:43.791Z,5.73
2022-11-28T05:25:11.768Z,5.63
2022-11-28T05:27:39.924Z,5.80
2022-11-28T05:30:13.050Z,6.01
2022-11-28T05:32:41.425Z,5.43
2022-11-28T05:35:09.802Z,5.72
2022-11-28T05:37:38.071Z,5.10
2022-11-28T05:40:06.780Z,5.42
2022-11-28T05:42:36.040Z,5.25
2022-11-28T05:45:05.010Z,6.14
2022-11-28T05:47:33.745Z,5.95
2022-11-28T05:50:02.028Z,6.19
2022-11-28T05:52:32.428Z,5.86
2022-11-28T05:55:00.620Z,6.01
2022-11-28T05:57:30.200Z,5.81
2022-11-28T05:59:58.209Z,5.68
2022-11-28T06:02:26.338Z,5.77
2022-11-28T06:04:54.749Z,5.34
2022-11-28T06:07:22.888Z,5.69
2022-11-28T06:09:50.931Z,5.16
2022-11-28T06:12:19.241Z,5.79
2022-11-28T06:14:47.306Z,5.78
2022-11-28T06:17:15.336Z,5.70
2022-11-28T06:19:43.680Z,5.63
2022-11-28T06:22:11.848Z,5.79
2022-11-28T06:24:39.884Z,5.53
2022-11-28T06:27:08.306Z,5.65
2022-11-28T06:29:36.216Z,5.31
2022-11-28T06:32:04.277Z,5.52
2022-11-28T06:34:32.800Z,5.53
2022-11-28T06:37:01.121Z,5.30
2022-11-28T06:39:29.140Z,5.35
2022-11-28T06:41:57.442Z,5.38
2022-11-28T06:44:25.454Z,5.10
2022-11-28T06:46:54.954Z,5.37
2022-11-28T06:49:23.332Z,5.34
2022-11-28T06:51:51.252Z,5.74
2022-11-28T06:54:19.273Z,5.40
2022-11-28T06:56:47.588Z,5.36
2022-11-28T06:59:15.602Z,5.59
2022-11-28T07:01:43.678Z,5.60
2022-11-28T07:04:12.091Z,5.01
2022-11-28T07:06:40.171Z,5.19
2022-11-28T07:09:08.320Z,5.76
2022-11-28T07:11:36.769Z,5.78
2022-11-28T07:14:04.932Z,5.87
2022-11-28T07:16:34.033Z,5.84
2022-11-28T07:19:03.041Z,6.06
2022-11-28T07:21:31.228Z,5.55
2022-11-28T07:24:00.095Z,5.20
2022-11-28T07:26:28.514Z,5.18
2022-11-28T07:28:58.518Z,5.59
2022-11-28T07:31:29.757Z,5.56
2022-11-28T07:33:58.229Z,5.51
2022-11-28T07:36:28.176Z,5.24
2022-11-28T07:38:58.995Z,5.26
2022-11-28T07:41:28.338Z,5.57
2022-11-28T07:43:59.919Z,5.75
2022-11-28T07:46:29.566Z,5.23
2022-11-28T07:48:57.668Z,5.78
2022-11-28T07:51:28.741Z,5.21
2022-11-28T07:53:57.972Z,5.62
2022-11-28T07:56:39.551Z,5.42
2022-11-28T07:59:17.049Z,5.51
2022-11-28T08:01:45.121Z,5.55
2022-11-28T08:04:13.623Z,5.13
2022-11-28T08:06:42.638Z,5.39
2022-11-28T08:09:12.347Z,4.82
2022-11-28T08:11:41.617Z,5.07
2022-11-28T08:14:09.742Z,4.92
2022-11-28T08:16:41.482Z,4.40
2022-11-28T08:19:09.924Z,4.51
2022-11-28T08:21:38.127Z,5.02
2022-11-28T08:24:08.283Z,4.56
2022-11-28T08:26:37.654Z,4.82
2022-11-28T08:29:05.737Z,4.74
2022-11-28T08:31:36.582Z,4.94
2022-11-28T08:34:08.028Z,4.99
2022-11-28T08:36:36.138Z,5.04
2022-11-28T08:41:57.850Z,5.10
2022-11-28T08:44:27.578Z,5.20
2022-11-28T08:46:56.306Z,4.58
2022-11-28T08:49:24.416Z,4.45
2022-11-28T08:51:52.948Z,3.87
2022-11-28T08:54:21.329Z,4.23
2022-11-28T08:56:49.329Z,4.82
2022-11-28T08:59:17.697Z,5.16
2022-11-28T09:01:45.918Z,4.87
2022-11-28T09:04:14.176Z,5.04
2022-11-28T09:06:42.736Z,4.97
2022-11-28T09:09:10.920Z,5.08
2022-11-28T09:11:39.127Z,4.92
2022-11-28T09:14:07.907Z,5.34
2022-11-28T09:16:36.057Z,5.51
2022-11-28T09:19:04.396Z,4.86
2022-11-28T09:21:32.866Z,4.78
2022-11-28T09:24:01.070Z,4.72
2022-11-28T09:26:30.347Z,4.94
2022-11-28T09:28:58.699Z,4.66
2022-11-28T09:31:27.201Z,4.96
2022-11-28T09:33:55.479Z,4.89
2022-11-28T09:36:24.910Z,4.92
2022-11-28T09:38:53.056Z,5.28
2022-11-28T09:41:41.868Z,5.13
2022-11-28T09:44:19.372Z,5.35
2022-11-28T09:46:48.990Z,5.89
2022-11-28T09:49:59.028Z,5.67
2022-11-28T09:53:01.216Z,5.72
2022-11-28T09:55:37.085Z,5.39
2022-11-28T09:58:20.138Z,5.51
2022-11-28T10:00:56.167Z,5.74
2022-11-28T10:03:50.493Z,5.68
2022-11-28T10:06:28.511Z,5.78
2022-11-28T10:09:14.869Z,5.33
2022-11-28T10:12:10.647Z,5.48
2022-11-28T10:14:51.318Z,5.89
2022-11-28T10:17:33.977Z,5.72
2022-11-28T10:20:17.641Z,5.58
2022-11-28T10:23:28.947Z,5.60
2022-11-28T10:25:58.009Z,5.59
2022-11-28T10:28:35.670Z,5.09
2022-11-28T10:31:19.854Z,5.61
2022-11-28T10:33:53.087Z,5.54
2022-11-28T10:36:26.679Z,5.20
2022-11-28T10:38:54.753Z,5.61
2022-11-28T10:41:29.127Z,5.55
2022-11-28T10:44:03.010Z,5.89
2022-11-28T10:46:57.868Z,5.66
2022-11-28T10:50:04.719Z,5.66
2022-11-28T10:52:45.539Z,5.43
2022-11-28T10:55:22.747Z,5.66
2022-11-28T10:57:51.022Z,5.98
2022-11-28T11:00:20.043Z,5.62
2022-11-28T11:02:51.829Z,5.60
2022-11-28T11:05:22.638Z,5.77
2022-11-28T11:08:03.761Z,5.98
2022-11-28T11:10:32.173Z,6.02
2022-11-28T11:13:00.456Z,5.57
2022-11-28T11:15:30.168Z,5.49
2022-11-28T11:18:03.388Z,5.97
2022-11-28T11:20:40.141Z,6.23
2022-11-28T11:23:16.302Z,5.96
2022-11-28T11:25:55.034Z,6.32
2022-11-28T11:28:33.101Z,6.26
2022-11-28T11:31:05.843Z,5.68
2022-11-28T11:33:36.637Z,5.62
2022-11-28T11:36:06.366Z,6.02
2022-11-28T11:38:38.044Z,6.00
2022-11-28T11:41:29.909Z,5.88
2022-11-28T11:44:36.138Z,5.97
2022-11-28T11:47:09.352Z,6.21
2022-11-28T11:49:39.000Z,5.79
2022-11-28T11:52:13.417Z,6.17
2022-11-28T11:54:47.727Z,6.18
2022-11-28T11:57:33.839Z,6.31
2022-11-28T12:00:16.205Z,6.32
2022-11-28T12:02:48.195Z,5.88
2022-11-28T12:05:18.245Z,6.11
2022-11-28T12:07:51.100Z,6.28
2022-11-28T12:10:22.178Z,6.51
2022-11-28T12:12:50.917Z,6.48
2022-11-28T12:15:46.569Z,6.20
2022-11-28T12:19:00.620Z,6.23
2022-11-28T12:22:19.966Z,6.64
2022-11-28T12:25:06.916Z,6.10
2022-11-28T12:28:03.892Z,6.28
2022-11-28T12:30:33.815Z,6.26
2022-11-28T12:33:07.602Z,6.30
2022-11-28T12:36:03.008Z,5.96
2022-11-28T12:38:40.468Z,5.91
2022-11-28T12:42:03.134Z,5.77
2022-11-28T12:44:58.822Z,5.73
2022-11-28T12:47:47.706Z,6.17
2022-11-28T12:50:27.058Z,6.48
2022-11-28T12:53:21.990Z,6.31
2022-11-28T12:56:14.198Z,6.30
2022-11-28T12:58:57.659Z,6.03
2022-11-28T13:01:45.235Z,6.19
2022-11-28T13:04:42.398Z,5.99
2022-11-28T13:07:48.206Z,6.19
2022-11-28T13:10:34.893Z,6.14
2022-11-28T13:13:20.248Z,5.80
2022-11-28T13:16:16.305Z,6.08
2022-11-28T13:19:00.411Z,5.93
2022-11-28T13:21:52.778Z,6.11
2022-11-28T13:24:32.847Z,6.18
2022-11-28T13:27:34.219Z,6.16
2022-11-28T13:30:21.358Z,6.25
2022-11-28T13:33:00.479Z,6.05
2022-11-28T13:35:29.006Z,5.87
2022-11-28T13:42:01.190Z,6.14
2022-11-28T13:44:24.292Z,6.19
2022-11-28T13:46:52.359Z,6.24
2022-11-28T13:49:26.037Z,6.34
2022-11-28T13:52:18.948Z,6.20
2022-11-28T13:54:54.737Z,6.13
2022-11-28T13:57:30.359Z,6.21
2022-11-28T14:00:04.735Z,6.50
2022-11-28T14:02:45.969Z,6.44
2022-11-28T14:05:33.228Z,6.30
2022-11-28T14:08:01.711Z,6.19
2022-11-28T14:10:48.737Z,5.75
2022-11-28T14:13:44.238Z,6.33
2022-11-28T14:16:34.334Z,6.37
2022-11-28T14:19:40.132Z,6.67
2022-11-28T14:22:25.912Z,6.43
2022-11-28T14:25:28.126Z,6.28
2022-11-28T14:28:01.768Z,6.08
2022-11-28T14:30:37.811Z,6.23
2022-11-28T14:33:26.647Z,6.13
2022-11-28T14:35:54.632Z,6.37
2022-11-28T14:38:34.009Z,5.70
2022-11-28T14:41:11.889Z,5.93
2022-11-28T14:43:47.626Z,5.92
2022-11-28T14:46:15.652Z,5.90
2022-11-28T14:48:59.602Z,6.08
2022-11-28T14:52:00.027Z,6.07
2022-11-28T14:54:43.654Z,6.04
2022-11-28T14:57:23.175Z,6.04
2022-11-28T14:59:53.073Z,5.54
2022-11-28T15:02:27.506Z,5.39
2022-11-28T15:05:07.827Z,5.75
2022-11-28T15:07:49.736Z,5.43
2022-11-28T15:10:31.669Z,5.22
2022-11-28T15:13:20.917Z,5.55
2022-11-28T15:15:50.320Z,5.32
2022-11-28T15:18:20.358Z,5.39
2022-11-28T15:20:54.166Z,5.59
2022-11-28T15:23:30.558Z,5.54
2022-11-28T15:26:00.719Z,5.32
2022-11-28T15:28:32.649Z,5.31
2022-11-28T15:31:02.484Z,5.11
2022-11-28T15:33:32.518Z,5.21
2022-11-28T15:36:10.937Z,5.16
2022-11-28T15:38:42.929Z,5.29
2022-11-28T15:41:11.391Z,5.28
2022-11-28T15:43:43.926Z,4.81
2022-11-28T15:46:20.825Z,5.13
2022-11-28T15:48:52.887Z,4.68
2022-11-28T15:51:32.952Z,4.82
2022-11-28T15:54:05.300Z,4.97
2022-11-28T15:56:35.132Z,4.99
2022-11-28T15:59:03.809Z,5.00
2022-11-28T16:01:32.277Z,5.09
2022-11-28T16:04:06.976Z,4.93
2022-11-28T16:06:37.556Z,5.01
2022-11-28T16:09:18.339Z,4.94
2022-11-28T16:11:49.098Z,4.82
2022-11-28T16:14:36.856Z,4.80
2022-11-28T16:17:13.859Z,4.79
2022-11-28T16:19:44.609Z,4.82
2022-11-28T16:22:19.246Z,4.82
2022-11-28T16:24:50.527Z,4.80
2022-11-28T16:27:40.144Z,4.92
2022-11-28T16:30:32.907Z,4.92
2022-11-28T16:33:01.571Z,5.04
2022-11-28T16:35:39.158Z,4.99
2022-11-28T16:38:23.988Z,4.84
2022-11-28T16:40:59.755Z,4.79
2022-11-28T16:43:39.415Z,4.73
2022-11-28T16:46:15.954Z,4.77
2022-11-28T16:48:55.107Z,4.83
2022-11-28T16:51:30.238Z,4.43
2022-11-28T16:53:59.856Z,4.70
2022-11-28T16:56:31.537Z,4.91
2022-11-28T16:59:24.199Z,4.96
2022-11-28T17:01:53.790Z,4.75
2022-11-28T17:04:22.297Z,4.75
2022-11-28T17:06:51.660Z,4.10
2022-11-28T17:09:21.380Z,4.50
2022-11-28T17:12:15.486Z,4.74
2022-11-28T17:14:44.540Z,4.66
2022-11-28T17:17:14.217Z,4.70
2022-11-28T17:19:42.651Z,4.60
2022-11-28T17:22:14.346Z,4.62
2022-11-28T17:24:42.848Z,4.72
2022-11-28T17:27:15.806Z,4.37
2022-11-28T17:29:44.458Z,4.28
2022-11-28T17:32:14.196Z,4.33
2022-11-28T17:34:42.809Z,4.35
2022-11-28T17:37:10.998Z,4.49
2022-11-28T17:39:39.494Z,4.45
2022-11-28T17:42:10.179Z,4.51
2022-11-28T17:44:39.306Z,4.31
2022-11-28T17:47:07.678Z,4.07
2022-11-28T17:49:35.744Z,4.11
2022-11-28T17:52:04.016Z,4.18
2022-11-28T17:54:33.307Z,4.09
2022-11-28T17:57:01.459Z,4.14
2022-11-28T17:59:29.572Z,3.57
2022-11-28T18:01:58.436Z,3.85
2022-11-28T18:04:26.796Z,4.14
2022-11-28T18:06:55.085Z,4.39
2022-11-28T18:09:23.190Z,4.41
2022-11-28T18:11:51.960Z,4.17
2022-11-28T18:14:20.401Z,3.83
2022-11-28T18:16:48.710Z,4.41
2022-11-28T18:19:17.279Z,4.10
2022-11-28T18:21:45.289Z,3.96
2022-11-28T18:24:13.794Z,4.22
2022-11-28T18:26:42.765Z,4.32
2022-11-28T18:29:11.017Z,3.86
2022-11-28T18:31:39.180Z,4.10
2022-11-28T18:34:09.917Z,4.21
2022-11-28T18:36:39.327Z,3.79
2022-11-28T18:39:09.596Z,3.84
2022-11-28T18:41:37.872Z,3.92
2022-11-28T18:44:06.709Z,4.07
2022-11-28T18:46:35.649Z,4.07
2022-11-28T18:49:03.869Z,4.51
2022-11-28T18:51:34.607Z,4.09
2022-11-28T18:54:04.924Z,4.11
2022-11-28T18:56:33.797Z,4.11
2022-11-28T18:59:01.865Z,4.27
2022-11-28T19:01:32.653Z,4.12
2022-11-28T19:04:07.622Z,4.03
2022-11-28T19:06:38.037Z,4.03
2022-11-28T19:09:09.567Z,4.27
2022-11-28T19:11:38.767Z,3.73
2022-11-28T19:14:08.693Z,3.83
2022-11-28T19:16:37.859Z,3.64
2022-11-28T19:19:06.765Z,3.83
2022-11-28T19:21:35.897Z,3.99
2022-11-28T19:24:04.389Z,3.79
2022-11-28T19:26:34.310Z,3.57
2022-11-28T19:29:02.749Z,3.90
2022-11-28T19:31:32.835Z,3.89
2022-11-28T19:34:12.888Z,3.69
2022-11-28T19:36:46.890Z,3.70
2022-11-28T19:39:24.337Z,3.72
2022-11-28T19:41:53.676Z,3.28
2022-11-28T19:44:24.293Z,3.85
2022-11-28T19:46:53.123Z,3.50
2022-11-28T19:49:23.107Z,3.79
2022-11-28T19:51:51.707Z,4.31
2022-11-28T19:54:20.010Z,3.87
2022-11-28T19:56:49.414Z,4.05
2022-11-28T19:59:18.035Z,3.85
2022-11-28T20:01:49.175Z,4.02
2022-11-28T20:04:17.638Z,3.83
2022-11-28T20:06:45.716Z,3.92
2022-11-28T20:09:17.046Z,4.16
2022-11-28T20:11:47.857Z,4.19
2022-11-28T20:14:18.556Z,4.04
2022-11-28T20:16:47.470Z,4.08
2022-11-28T20:19:16.328Z,3.79
2022-11-28T20:21:44.885Z,3.86
2022-11-28T20:24:13.327Z,3.68
2022-11-28T20:26:44.001Z,4.04
2022-11-28T20:29:16.068Z,4.07
2022-11-28T20:31:47.852Z,4.24
2022-11-28T20:34:17.617Z,4.33
2022-11-28T20:36:46.577Z,4.13
2022-11-28T20:39:14.637Z,4.20
2022-11-28T20:41:42.619Z,3.89
2022-11-28T20:44:12.283Z,3.47
2022-11-28T20:46:40.239Z,3.61
2022-11-28T20:49:08.277Z,3.82
2022-11-28T20:51:36.649Z,3.96
2022-11-28T20:54:06.068Z,4.04
2022-11-28T20:57:05.208Z,4.06
2022-11-28T20:59:27.967Z,3.89
2022-11-28T21:01:56.015Z,3.53
2022-11-28T21:04:24.216Z,3.73
2022-11-28T21:06:52.645Z,3.74
2022-11-28T21:09:20.853Z,3.93
2022-11-28T21:11:58.484Z,4.05
2022-11-28T21:14:29.111Z,3.79
2022-11-28T21:16:58.503Z,3.98
2022-11-28T21:19:26.557Z,3.91
2022-11-28T21:21:54.897Z,4.02
2022-11-28T21:24:22.891Z,4.11
2022-11-28T21:26:54.056Z,3.91
2022-11-28T21:29:24.043Z,4.18
2022-11-28T21:31:53.009Z,4.21
2022-11-28T21:34:22.607Z,4.17
2022-11-28T21:36:51.124Z,4.19
2022-11-28T21:39:20.478Z,3.83
2022-11-28T21:41:48.669Z,4.02
2022-11-28T21:44:17.049Z,3.84
2022-11-28T21:46:45.428Z,3.74
2022-11-28T21:49:13.795Z,4.05
2022-11-28T21:51:42.183Z,3.91
2022-11-28T21:54:11.116Z,3.83
2022-11-28T21:56:39.540Z,3.93
2022-11-28T21:59:08.270Z,4.24
2022-11-28T22:01:36.484Z,4.12
2022-11-28T22:04:05.587Z,3.51
2022-11-28T22:06:34.020Z,3.48
2022-11-28T22:09:08.646Z,3.55
2022-11-28T22:11:39.151Z,3.31
2022-11-28T22:14:07.437Z,3.77
2022-11-28T22:16:36.177Z,3.95
2022-11-28T22:19:04.897Z,3.29
2022-11-28T22:24:21.941Z,4.07
2022-11-28T22:26:50.057Z,3.88
2022-11-28T22:29:18.777Z,3.80
2022-11-28T22:31:47.397Z,3.88
2022-11-28T22:34:15.498Z,3.87
2022-11-28T22:36:43.928Z,4.12
2022-11-28T22:39:12.596Z,4.14
2022-11-28T22:41:40.719Z,3.89
2022-11-28T22:44:10.503Z,4.19
2022-11-28T22:46:39.191Z,4.13
2022-11-28T22:49:09.765Z,4.40
2022-11-28T22:51:39.539Z,4.21
2022-11-28T22:54:12.048Z,3.90
2022-11-28T22:56:41.036Z,3.64
2022-11-28T22:59:14.480Z,4.00
2022-11-28T23:01:43.867Z,3.73
2022-11-28T23:04:12.198Z,3.58
2022-11-28T23:06:40.804Z,3.57
2022-11-28T23:09:09.995Z,3.48
2022-11-28T23:11:39.663Z,3.35
2022-11-28T23:14:10.248Z,3.38
2022-11-28T23:16:40.714Z,3.06
2022-11-28T23:19:12.787Z,3.25
2022-11-28T23:21:43.448Z,3.16
2022-11-28T23:24:17.226Z,3.36
2022-11-28T23:26:45.850Z,3.28
2022-11-28T23:29:14.788Z,2.99
2022-11-28T23:31:43.843Z,3.43
2022-11-28T23:34:12.567Z,3.15
2022-11-28T23:36:45.988Z,3.29
2022-11-28T23:39:22.405Z,3.40
2022-11-28T23:41:50.514Z,3.25
2022-11-28T23:44:19.857Z,3.08
2022-11-28T23:46:48.531Z,3.15
2022-11-28T23:49:17.048Z,3.29
2022-11-28T23:51:45.068Z,3.16
2022-11-28T23:54:13.199Z,3.34
2022-11-28T23:56:42.241Z,3.23
2022-11-28T23:59:11.808Z,2.70
